sensor_id;sensor_type;location;lat;lon;timestamp;P1;durP1;ratioP1;P2;durP2;ratioP2
35488;SDS011;21602;55.670;37.578;2023-04-03T00:01:21;7.75;;;5.25;;
35488;SDS011;21602;55.670;37.578;2023-04-03T00:03:47;8.38;;;5.07;;
35488;SDS011;21602;55.670;37.578;2023-04-03T00:06:13;8.93;;;5.45;;
35488;SDS011;21602;55.670;37.578;2023-04-03T00:08:39;6.95;;;5.13;;
35488;SDS011;21602;55.670;37.578;2023-04-03T00:11:05;7.65;;;4.85;;
35488;SDS011;21602;55.670;37.578;2023-04-03T00:13:32;6.80;;;5.50;;
35488;SDS011;21602;55.670;37.578;2023-04-03T00:15:58;8.88;;;5.25;;
35488;SDS011;21602;55.670;37.578;2023-04-03T00:18:25;8.48;;;4.97;;
35488;SDS011;21602;55.670;37.578;2023-04-03T00:20:51;8.63;;;5.65;;
35488;SDS011;21602;55.670;37.578;2023-04-03T00:23:16;10.75;;;5.65;;
35488;SDS011;21602;55.670;37.578;2023-04-03T00:25:43;12.05;;;5.75;;
35488;SDS011;21602;55.670;37.578;2023-04-03T00:28:09;9.98;;;6.15;;
35488;SDS011;21602;55.670;37.578;2023-04-03T00:30:36;9.30;;;5.70;;
35488;SDS011;21602;55.670;37.578;2023-04-03T00:33:02;8.57;;;5.50;;
35488;SDS011;21602;55.670;37.578;2023-04-03T00:35:28;7.80;;;5.35;;
35488;SDS011;21602;55.670;37.578;2023-04-03T00:37:55;10.93;;;5.43;;
35488;SDS011;21602;55.670;37.578;2023-04-03T00:40:22;10.15;;;5.47;;
35488;SDS011;21602;55.670;37.578;2023-04-03T00:42:55;10.23;;;6.10;;
35488;SDS011;21602;55.670;37.578;2023-04-03T00:45:28;12.68;;;6.82;;
35488;SDS011;21602;55.670;37.578;2023-04-03T00:48:04;10.27;;;7.05;;
35488;SDS011;21602;55.670;37.578;2023-04-03T00:50:32;11.60;;;6.70;;
35488;SDS011;21602;55.670;37.578;2023-04-03T00:53:03;9.30;;;6.80;;
35488;SDS011;21602;55.670;37.578;2023-04-03T01:00:26;11.48;;;6.60;;
35488;SDS011;21602;55.670;37.578;2023-04-03T01:02:52;9.57;;;7.20;;
35488;SDS011;21602;55.670;37.578;2023-04-03T01:05:19;10.55;;;7.07;;
35488;SDS011;21602;55.670;37.578;2023-04-03T01:07:47;11.07;;;6.60;;
35488;SDS011;21602;55.670;37.578;2023-04-03T01:10:15;8.00;;;6.00;;
35488;SDS011;21602;55.670;37.578;2023-04-03T01:12:45;12.10;;;7.15;;
35488;SDS011;21602;55.670;37.578;2023-04-03T01:15:16;9.50;;;6.53;;
35488;SDS011;21602;55.670;37.578;2023-04-03T01:17:47;9.43;;;6.38;;
35488;SDS011;21602;55.670;37.578;2023-04-03T01:23:02;14.80;;;7.82;;
35488;SDS011;21602;55.670;37.578;2023-04-03T01:25:43;10.07;;;6.35;;
35488;SDS011;21602;55.670;37.578;2023-04-03T01:33:25;12.18;;;6.70;;
35488;SDS011;21602;55.670;37.578;2023-04-03T01:35:51;8.65;;;6.03;;
35488;SDS011;21602;55.670;37.578;2023-04-03T01:38:17;11.73;;;6.88;;
35488;SDS011;21602;55.670;37.578;2023-04-03T01:40:43;11.52;;;7.95;;
35488;SDS011;21602;55.670;37.578;2023-04-03T01:43:09;15.45;;;7.05;;
35488;SDS011;21602;55.670;37.578;2023-04-03T01:45:35;9.55;;;6.70;;
35488;SDS011;21602;55.670;37.578;2023-04-03T01:48:01;7.72;;;5.97;;
35488;SDS011;21602;55.670;37.578;2023-04-03T01:50:28;10.90;;;6.45;;
35488;SDS011;21602;55.670;37.578;2023-04-03T01:52:54;10.50;;;6.88;;
35488;SDS011;21602;55.670;37.578;2023-04-03T01:55:20;6.60;;;5.57;;
35488;SDS011;21602;55.670;37.578;2023-04-03T01:57:46;12.27;;;6.40;;
35488;SDS011;21602;55.670;37.578;2023-04-03T02:00:13;12.18;;;6.40;;
35488;SDS011;21602;55.670;37.578;2023-04-03T02:02:41;15.07;;;6.70;;
35488;SDS011;21602;55.670;37.578;2023-04-03T02:05:07;9.75;;;5.95;;
35488;SDS011;21602;55.670;37.578;2023-04-03T02:07:33;8.20;;;6.05;;
35488;SDS011;21602;55.670;37.578;2023-04-03T02:10:00;11.80;;;6.03;;
35488;SDS011;21602;55.670;37.578;2023-04-03T02:12:26;9.18;;;5.93;;
35488;SDS011;21602;55.670;37.578;2023-04-03T02:14:52;7.50;;;5.68;;
35488;SDS011;21602;55.670;37.578;2023-04-03T02:17:19;12.00;;;6.40;;
35488;SDS011;21602;55.670;37.578;2023-04-03T02:19:45;11.15;;;6.20;;
35488;SDS011;21602;55.670;37.578;2023-04-03T02:22:11;10.13;;;6.40;;
35488;SDS011;21602;55.670;37.578;2023-04-03T02:24:36;11.73;;;6.40;;
35488;SDS011;21602;55.670;37.578;2023-04-03T02:27:04;10.02;;;6.50;;
35488;SDS011;21602;55.670;37.578;2023-04-03T02:29:30;8.88;;;5.80;;
35488;SDS011;21602;55.670;37.578;2023-04-03T02:31:56;9.98;;;6.00;;
35488;SDS011;21602;55.670;37.578;2023-04-03T02:34:23;9.95;;;6.47;;
35488;SDS011;21602;55.670;37.578;2023-04-03T02:36:49;7.80;;;5.78;;
35488;SDS011;21602;55.670;37.578;2023-04-03T02:39:17;7.22;;;6.40;;
35488;SDS011;21602;55.670;37.578;2023-04-03T02:41:43;10.82;;;6.25;;
35488;SDS011;21602;55.670;37.578;2023-04-03T02:44:16;9.55;;;6.40;;
35488;SDS011;21602;55.670;37.578;2023-04-03T02:46:42;9.18;;;6.00;;
35488;SDS011;21602;55.670;37.578;2023-04-03T02:49:07;15.35;;;6.75;;
35488;SDS011;21602;55.670;37.578;2023-04-03T02:51:33;11.15;;;7.32;;
35488;SDS011;21602;55.670;37.578;2023-04-03T02:53:59;11.55;;;6.50;;
35488;SDS011;21602;55.670;37.578;2023-04-03T02:56:29;11.05;;;6.60;;
35488;SDS011;21602;55.670;37.578;2023-04-03T02:58:57;10.20;;;6.72;;
35488;SDS011;21602;55.670;37.578;2023-04-03T03:01:23;11.27;;;6.88;;
35488;SDS011;21602;55.670;37.578;2023-04-03T03:03:49;9.70;;;7.10;;
35488;SDS011;21602;55.670;37.578;2023-04-03T03:06:16;10.52;;;7.10;;
35488;SDS011;21602;55.670;37.578;2023-04-03T03:08:43;12.63;;;7.05;;
35488;SDS011;21602;55.670;37.578;2023-04-03T03:11:09;12.88;;;8.30;;
35488;SDS011;21602;55.670;37.578;2023-04-03T03:13:36;11.18;;;8.00;;
35488;SDS011;21602;55.670;37.578;2023-04-03T03:16:02;11.40;;;7.47;;
35488;SDS011;21602;55.670;37.578;2023-04-03T03:18:28;11.43;;;8.50;;
35488;SDS011;21602;55.670;37.578;2023-04-03T03:20:55;10.43;;;7.22;;
35488;SDS011;21602;55.670;37.578;2023-04-03T03:23:22;11.15;;;7.10;;
35488;SDS011;21602;55.670;37.578;2023-04-03T03:25:54;13.32;;;8.70;;
35488;SDS011;21602;55.670;37.578;2023-04-03T03:28:27;19.27;;;7.68;;
35488;SDS011;21602;55.670;37.578;2023-04-03T03:30:53;15.68;;;8.27;;
35488;SDS011;21602;55.670;37.578;2023-04-03T03:33:20;14.15;;;8.52;;
35488;SDS011;21602;55.670;37.578;2023-04-03T03:35:46;14.10;;;9.75;;
35488;SDS011;21602;55.670;37.578;2023-04-03T03:38:12;15.38;;;8.80;;
35488;SDS011;21602;55.670;37.578;2023-04-03T03:40:38;11.23;;;8.73;;
35488;SDS011;21602;55.670;37.578;2023-04-03T03:43:04;16.35;;;9.85;;
35488;SDS011;21602;55.670;37.578;2023-04-03T03:45:31;17.27;;;10.27;;
35488;SDS011;21602;55.670;37.578;2023-04-03T03:47:56;13.05;;;8.93;;
35488;SDS011;21602;55.670;37.578;2023-04-03T03:50:23;16.27;;;9.35;;
35488;SDS011;21602;55.670;37.578;2023-04-03T03:52:49;16.73;;;8.90;;
35488;SDS011;21602;55.670;37.578;2023-04-03T03:55:16;13.95;;;10.07;;
35488;SDS011;21602;55.670;37.578;2023-04-03T03:57:43;15.80;;;8.98;;
35488;SDS011;21602;55.670;37.578;2023-04-03T04:00:10;17.33;;;9.25;;
35488;SDS011;21602;55.670;37.578;2023-04-03T04:02:42;17.17;;;10.15;;
35488;SDS011;21602;55.670;37.578;2023-04-03T04:05:12;19.90;;;10.20;;
35488;SDS011;21602;55.670;37.578;2023-04-03T04:07:38;19.27;;;8.98;;
35488;SDS011;21602;55.670;37.578;2023-04-03T04:10:05;13.20;;;9.65;;
35488;SDS011;21602;55.670;37.578;2023-04-03T04:12:31;17.42;;;10.35;;
35488;SDS011;21602;55.670;37.578;2023-04-03T04:14:57;14.27;;;9.32;;
35488;SDS011;21602;55.670;37.578;2023-04-03T04:17:23;12.80;;;9.63;;
35488;SDS011;21602;55.670;37.578;2023-04-03T04:19:50;17.88;;;9.45;;
35488;SDS011;21602;55.670;37.578;2023-04-03T04:22:16;14.93;;;9.07;;
35488;SDS011;21602;55.670;37.578;2023-04-03T04:24:42;13.15;;;9.18;;
35488;SDS011;21602;55.670;37.578;2023-04-03T04:27:08;14.85;;;9.27;;
35488;SDS011;21602;55.670;37.578;2023-04-03T04:29:35;15.20;;;9.68;;
35488;SDS011;21602;55.670;37.578;2023-04-03T04:32:04;15.38;;;10.07;;
35488;SDS011;21602;55.670;37.578;2023-04-03T04:34:30;25.00;;;10.15;;
35488;SDS011;21602;55.670;37.578;2023-04-03T04:36:57;19.75;;;10.70;;
35488;SDS011;21602;55.670;37.578;2023-04-03T04:39:24;18.98;;;11.52;;
35488;SDS011;21602;55.670;37.578;2023-04-03T04:41:51;15.85;;;10.65;;
35488;SDS011;21602;55.670;37.578;2023-04-03T04:44:18;14.52;;;9.32;;
35488;SDS011;21602;55.670;37.578;2023-04-03T04:46:44;22.67;;;13.45;;
35488;SDS011;21602;55.670;37.578;2023-04-03T04:49:10;17.50;;;10.48;;
35488;SDS011;21602;55.670;37.578;2023-04-03T04:51:37;16.88;;;11.52;;
35488;SDS011;21602;55.670;37.578;2023-04-03T04:54:03;17.20;;;9.48;;
35488;SDS011;21602;55.670;37.578;2023-04-03T04:56:30;19.42;;;9.98;;
35488;SDS011;21602;55.670;37.578;2023-04-03T04:58:58;16.85;;;9.45;;
35488;SDS011;21602;55.670;37.578;2023-04-03T05:01:25;17.75;;;9.32;;
35488;SDS011;21602;55.670;37.578;2023-04-03T05:06:30;18.60;;;9.60;;
35488;SDS011;21602;55.670;37.578;2023-04-03T05:08:58;23.55;;;10.25;;
35488;SDS011;21602;55.670;37.578;2023-04-03T05:11:25;22.10;;;12.63;;
35488;SDS011;21602;55.670;37.578;2023-04-03T05:13:52;16.47;;;9.33;;
35488;SDS011;21602;55.670;37.578;2023-04-03T05:16:20;17.13;;;9.67;;
35488;SDS011;21602;55.670;37.578;2023-04-03T05:18:46;19.35;;;9.30;;
35488;SDS011;21602;55.670;37.578;2023-04-03T05:21:20;16.30;;;10.45;;
35488;SDS011;21602;55.670;37.578;2023-04-03T05:23:50;24.55;;;9.70;;
35488;SDS011;21602;55.670;37.578;2023-04-03T05:26:17;22.25;;;10.95;;
35488;SDS011;21602;55.670;37.578;2023-04-03T05:28:46;20.95;;;10.65;;
35488;SDS011;21602;55.670;37.578;2023-04-03T05:31:12;22.17;;;12.15;;
35488;SDS011;21602;55.670;37.578;2023-04-03T05:33:38;17.85;;;10.77;;
35488;SDS011;21602;55.670;37.578;2023-04-03T05:36:08;18.33;;;10.13;;
35488;SDS011;21602;55.670;37.578;2023-04-03T05:38:43;28.67;;;10.35;;
35488;SDS011;21602;55.670;37.578;2023-04-03T05:41:09;18.42;;;10.35;;
35488;SDS011;21602;55.670;37.578;2023-04-03T05:43:35;19.27;;;10.73;;
35488;SDS011;21602;55.670;37.578;2023-04-03T05:46:09;20.13;;;10.57;;
35488;SDS011;21602;55.670;37.578;2023-04-03T05:48:42;21.77;;;11.60;;
35488;SDS011;21602;55.670;37.578;2023-04-03T05:51:21;17.95;;;11.50;;
35488;SDS011;21602;55.670;37.578;2023-04-03T05:53:56;14.10;;;9.98;;
35488;SDS011;21602;55.670;37.578;2023-04-03T05:56:32;21.25;;;11.00;;
35488;SDS011;21602;55.670;37.578;2023-04-03T05:58:58;17.75;;;10.77;;
35488;SDS011;21602;55.670;37.578;2023-04-03T06:01:25;22.00;;;9.95;;
35488;SDS011;21602;55.670;37.578;2023-04-03T06:03:51;18.58;;;10.25;;
35488;SDS011;21602;55.670;37.578;2023-04-03T06:06:18;25.15;;;11.85;;
35488;SDS011;21602;55.670;37.578;2023-04-03T06:08:43;22.08;;;13.13;;
35488;SDS011;21602;55.670;37.578;2023-04-03T06:11:10;17.38;;;10.88;;
35488;SDS011;21602;55.670;37.578;2023-04-03T06:13:37;18.08;;;10.10;;
35488;SDS011;21602;55.670;37.578;2023-04-03T06:16:06;19.50;;;11.07;;
35488;SDS011;21602;55.670;37.578;2023-04-03T06:18:32;18.88;;;9.88;;
35488;SDS011;21602;55.670;37.578;2023-04-03T06:20:58;19.63;;;10.05;;
35488;SDS011;21602;55.670;37.578;2023-04-03T06:23:24;23.92;;;10.38;;
35488;SDS011;21602;55.670;37.578;2023-04-03T06:25:51;22.08;;;11.90;;
35488;SDS011;21602;55.670;37.578;2023-04-03T06:28:17;19.48;;;9.57;;
35488;SDS011;21602;55.670;37.578;2023-04-03T06:30:44;15.57;;;10.00;;
35488;SDS011;21602;55.670;37.578;2023-04-03T06:33:10;11.60;;;8.90;;
35488;SDS011;21602;55.670;37.578;2023-04-03T06:35:36;20.90;;;9.50;;
35488;SDS011;21602;55.670;37.578;2023-04-03T06:38:03;17.50;;;9.60;;
35488;SDS011;21602;55.670;37.578;2023-04-03T06:40:35;22.45;;;9.02;;
35488;SDS011;21602;55.670;37.578;2023-04-03T06:43:01;19.17;;;9.95;;
35488;SDS011;21602;55.670;37.578;2023-04-03T06:45:27;14.80;;;9.60;;
35488;SDS011;21602;55.670;37.578;2023-04-03T06:47:55;19.23;;;10.15;;
35488;SDS011;21602;55.670;37.578;2023-04-03T06:50:21;21.40;;;9.60;;
35488;SDS011;21602;55.670;37.578;2023-04-03T06:52:47;19.50;;;9.15;;
35488;SDS011;21602;55.670;37.578;2023-04-03T06:55:13;19.13;;;10.40;;
35488;SDS011;21602;55.670;37.578;2023-04-03T06:57:39;17.13;;;9.65;;
35488;SDS011;21602;55.670;37.578;2023-04-03T07:00:05;14.63;;;9.65;;
35488;SDS011;21602;55.670;37.578;2023-04-03T07:02:32;17.00;;;9.95;;
35488;SDS011;21602;55.670;37.578;2023-04-03T07:04:59;21.40;;;10.35;;
35488;SDS011;21602;55.670;37.578;2023-04-03T07:07:25;17.77;;;10.00;;
35488;SDS011;21602;55.670;37.578;2023-04-03T07:09:51;16.08;;;10.35;;
35488;SDS011;21602;55.670;37.578;2023-04-03T07:12:17;15.55;;;9.75;;
35488;SDS011;21602;55.670;37.578;2023-04-03T07:14:43;22.30;;;9.32;;
35488;SDS011;21602;55.670;37.578;2023-04-03T07:17:09;16.20;;;9.00;;
35488;SDS011;21602;55.670;37.578;2023-04-03T07:19:35;18.73;;;9.90;;
35488;SDS011;21602;55.670;37.578;2023-04-03T07:22:01;18.73;;;10.60;;
35488;SDS011;21602;55.670;37.578;2023-04-03T07:24:27;15.23;;;9.98;;
35488;SDS011;21602;55.670;37.578;2023-04-03T07:26:53;18.17;;;10.55;;
35488;SDS011;21602;55.670;37.578;2023-04-03T07:29:19;21.58;;;10.30;;
35488;SDS011;21602;55.670;37.578;2023-04-03T07:31:47;21.60;;;10.18;;
35488;SDS011;21602;55.670;37.578;2023-04-03T07:34:13;20.90;;;9.77;;
35488;SDS011;21602;55.670;37.578;2023-04-03T07:36:38;19.42;;;9.80;;
35488;SDS011;21602;55.670;37.578;2023-04-03T07:39:04;25.52;;;10.52;;
35488;SDS011;21602;55.670;37.578;2023-04-03T07:41:32;31.93;;;9.80;;
35488;SDS011;21602;55.670;37.578;2023-04-03T07:43:58;19.30;;;10.07;;
35488;SDS011;21602;55.670;37.578;2023-04-03T07:46:23;29.30;;;10.45;;
35488;SDS011;21602;55.670;37.578;2023-04-03T07:48:50;22.90;;;11.20;;
35488;SDS011;21602;55.670;37.578;2023-04-03T07:51:15;26.83;;;11.25;;
35488;SDS011;21602;55.670;37.578;2023-04-03T07:53:41;28.10;;;10.73;;
35488;SDS011;21602;55.670;37.578;2023-04-03T07:56:07;25.35;;;10.27;;
35488;SDS011;21602;55.670;37.578;2023-04-03T07:58:34;27.40;;;9.43;;
35488;SDS011;21602;55.670;37.578;2023-04-03T08:01:02;23.23;;;10.90;;
35488;SDS011;21602;55.670;37.578;2023-04-03T08:03:28;22.65;;;9.52;;
35488;SDS011;21602;55.670;37.578;2023-04-03T08:05:54;35.55;;;11.85;;
35488;SDS011;21602;55.670;37.578;2023-04-03T08:08:21;32.13;;;11.13;;
35488;SDS011;21602;55.670;37.578;2023-04-03T08:10:52;18.55;;;10.05;;
35488;SDS011;21602;55.670;37.578;2023-04-03T08:13:19;29.08;;;11.45;;
35488;SDS011;21602;55.670;37.578;2023-04-03T08:15:46;30.15;;;9.63;;
35488;SDS011;21602;55.670;37.578;2023-04-03T08:18:18;28.42;;;10.95;;
35488;SDS011;21602;55.670;37.578;2023-04-03T08:20:46;32.67;;;11.77;;
35488;SDS011;21602;55.670;37.578;2023-04-03T08:23:15;37.53;;;11.10;;
35488;SDS011;21602;55.670;37.578;2023-04-03T08:25:42;30.80;;;11.65;;
35488;SDS011;21602;55.670;37.578;2023-04-03T08:28:10;20.45;;;10.43;;
35488;SDS011;21602;55.670;37.578;2023-04-03T08:30:41;26.27;;;10.20;;
35488;SDS011;21602;55.670;37.578;2023-04-03T08:33:07;21.23;;;10.57;;
35488;SDS011;21602;55.670;37.578;2023-04-03T08:35:38;29.30;;;9.93;;
35488;SDS011;21602;55.670;37.578;2023-04-03T08:38:08;20.38;;;10.65;;
35488;SDS011;21602;55.670;37.578;2023-04-03T08:40:34;24.80;;;11.13;;
35488;SDS011;21602;55.670;37.578;2023-04-03T08:45:50;23.85;;;9.75;;
35488;SDS011;21602;55.670;37.578;2023-04-03T08:48:19;23.15;;;11.48;;
35488;SDS011;21602;55.670;37.578;2023-04-03T08:50:54;27.10;;;11.65;;
35488;SDS011;21602;55.670;37.578;2023-04-03T08:53:25;21.60;;;10.43;;
35488;SDS011;21602;55.670;37.578;2023-04-03T08:55:58;19.95;;;10.85;;
35488;SDS011;21602;55.670;37.578;2023-04-03T08:58:33;24.83;;;11.95;;
35488;SDS011;21602;55.670;37.578;2023-04-03T09:01:38;24.15;;;11.55;;
35488;SDS011;21602;55.670;37.578;2023-04-03T09:04:10;29.73;;;11.88;;
35488;SDS011;21602;55.670;37.578;2023-04-03T09:06:39;16.50;;;10.15;;
35488;SDS011;21602;55.670;37.578;2023-04-03T09:12:06;23.60;;;12.13;;
35488;SDS011;21602;55.670;37.578;2023-04-03T09:17:56;25.23;;;11.10;;
35488;SDS011;21602;55.670;37.578;2023-04-03T09:23:24;22.40;;;11.68;;
35488;SDS011;21602;55.670;37.578;2023-04-03T09:26:07;22.02;;;11.82;;
35488;SDS011;21602;55.670;37.578;2023-04-03T09:28:39;37.78;;;11.82;;
35488;SDS011;21602;55.670;37.578;2023-04-03T09:31:18;22.45;;;11.48;;
35488;SDS011;21602;55.670;37.578;2023-04-03T09:33:51;22.33;;;11.15;;
35488;SDS011;21602;55.670;37.578;2023-04-03T09:36:41;27.75;;;11.82;;
35488;SDS011;21602;55.670;37.578;2023-04-03T09:39:14;27.30;;;12.93;;
35488;SDS011;21602;55.670;37.578;2023-04-03T09:41:42;24.67;;;11.27;;
35488;SDS011;21602;55.670;37.578;2023-04-03T09:44:34;23.35;;;11.23;;
35488;SDS011;21602;55.670;37.578;2023-04-03T09:50:24;25.15;;;11.57;;
35488;SDS011;21602;55.670;37.578;2023-04-03T09:52:50;25.80;;;12.40;;
35488;SDS011;21602;55.670;37.578;2023-04-03T09:57:45;26.85;;;12.98;;
35488;SDS011;21602;55.670;37.578;2023-04-03T10:00:33;23.20;;;10.88;;
35488;SDS011;21602;55.670;37.578;2023-04-03T10:03:01;29.85;;;11.98;;
35488;SDS011;21602;55.670;37.578;2023-04-03T10:05:37;20.35;;;11.43;;
35488;SDS011;21602;55.670;37.578;2023-04-03T10:08:19;30.52;;;12.63;;
35488;SDS011;21602;55.670;37.578;2023-04-03T10:14:00;19.05;;;10.27;;
35488;SDS011;21602;55.670;37.578;2023-04-03T10:19:41;18.65;;;11.25;;
35488;SDS011;21602;55.670;37.578;2023-04-03T10:27:59;14.65;;;9.50;;
35488;SDS011;21602;55.670;37.578;2023-04-03T10:33:08;17.65;;;11.30;;
35488;SDS011;21602;55.670;37.578;2023-04-03T10:40:51;16.60;;;10.45;;
35488;SDS011;21602;55.670;37.578;2023-04-03T10:43:36;15.48;;;9.15;;
35488;SDS011;21602;55.670;37.578;2023-04-03T10:46:28;25.75;;;9.50;;
35488;SDS011;21602;55.670;37.578;2023-04-03T10:49:05;20.45;;;8.85;;
35488;SDS011;21602;55.670;37.578;2023-04-03T10:51:48;18.60;;;9.32;;
35488;SDS011;21602;55.670;37.578;2023-04-03T10:54:26;16.23;;;9.07;;
35488;SDS011;21602;55.670;37.578;2023-04-03T10:57:01;21.85;;;9.55;;
35488;SDS011;21602;55.670;37.578;2023-04-03T10:59:32;15.02;;;8.98;;
35488;SDS011;21602;55.670;37.578;2023-04-03T11:02:06;17.38;;;9.00;;
35488;SDS011;21602;55.670;37.578;2023-04-03T11:04:40;21.15;;;9.98;;
35488;SDS011;21602;55.670;37.578;2023-04-03T11:07:11;25.58;;;8.90;;
35488;SDS011;21602;55.670;37.578;2023-04-03T11:09:44;12.13;;;8.48;;
35488;SDS011;21602;55.670;37.578;2023-04-03T11:12:24;18.65;;;9.18;;
35488;SDS011;21602;55.670;37.578;2023-04-03T11:14:55;18.70;;;9.50;;
35488;SDS011;21602;55.670;37.578;2023-04-03T11:17:26;22.98;;;8.50;;
35488;SDS011;21602;55.670;37.578;2023-04-03T11:20:18;21.27;;;8.63;;
35488;SDS011;21602;55.670;37.578;2023-04-03T11:25:47;16.40;;;9.57;;
35488;SDS011;21602;55.670;37.578;2023-04-03T11:28:18;18.58;;;8.07;;
35488;SDS011;21602;55.670;37.578;2023-04-03T11:30:46;21.02;;;8.40;;
35488;SDS011;21602;55.670;37.578;2023-04-03T11:33:20;17.45;;;8.48;;
35488;SDS011;21602;55.670;37.578;2023-04-03T11:36:08;18.55;;;8.75;;
35488;SDS011;21602;55.670;37.578;2023-04-03T11:38:38;19.23;;;8.68;;
35488;SDS011;21602;55.670;37.578;2023-04-03T11:41:09;17.98;;;8.30;;
35488;SDS011;21602;55.670;37.578;2023-04-03T11:43:42;15.05;;;8.27;;
35488;SDS011;21602;55.670;37.578;2023-04-03T11:46:48;23.90;;;8.32;;
35488;SDS011;21602;55.670;37.578;2023-04-03T12:03:29;16.77;;;7.65;;
35488;SDS011;21602;55.670;37.578;2023-04-03T12:08:47;13.15;;;8.52;;
35488;SDS011;21602;55.670;37.578;2023-04-03T12:14:12;24.63;;;8.68;;
35488;SDS011;21602;55.670;37.578;2023-04-03T12:16:42;17.42;;;8.52;;
35488;SDS011;21602;55.670;37.578;2023-04-03T12:26:50;14.02;;;6.95;;
35488;SDS011;21602;55.670;37.578;2023-04-03T12:29:27;12.98;;;7.05;;
35488;SDS011;21602;55.670;37.578;2023-04-03T12:40:15;13.95;;;6.78;;
35488;SDS011;21602;55.670;37.578;2023-04-03T12:48:53;13.25;;;5.88;;
35488;SDS011;21602;55.670;37.578;2023-04-03T12:54:03;8.27;;;4.68;;
35488;SDS011;21602;55.670;37.578;2023-04-03T12:56:39;7.95;;;4.50;;
35488;SDS011;21602;55.670;37.578;2023-04-03T12:59:23;12.95;;;4.95;;
35488;SDS011;21602;55.670;37.578;2023-04-03T13:01:55;12.43;;;4.85;;
35488;SDS011;21602;55.670;37.578;2023-04-03T13:04:23;11.35;;;5.38;;
35488;SDS011;21602;55.670;37.578;2023-04-03T13:06:50;9.55;;;5.07;;
35488;SDS011;21602;55.670;37.578;2023-04-03T13:09:23;11.05;;;4.32;;
35488;SDS011;21602;55.670;37.578;2023-04-03T13:11:57;14.07;;;4.67;;
35488;SDS011;21602;55.670;37.578;2023-04-03T13:14:28;9.35;;;5.07;;
35488;SDS011;21602;55.670;37.578;2023-04-03T13:20:14;8.02;;;4.45;;
35488;SDS011;21602;55.670;37.578;2023-04-03T13:23:00;11.27;;;4.40;;
35488;SDS011;21602;55.670;37.578;2023-04-03T13:25:37;11.70;;;4.57;;
35488;SDS011;21602;55.670;37.578;2023-04-03T13:28:11;16.52;;;4.68;;
35488;SDS011;21602;55.670;37.578;2023-04-03T13:30:41;8.77;;;4.28;;
35488;SDS011;21602;55.670;37.578;2023-04-03T13:33:34;12.55;;;4.00;;
35488;SDS011;21602;55.670;37.578;2023-04-03T13:36:22;6.50;;;4.43;;
35488;SDS011;21602;55.670;37.578;2023-04-03T13:41:42;13.60;;;5.03;;
35488;SDS011;21602;55.670;37.578;2023-04-03T13:46:51;7.50;;;4.38;;
35488;SDS011;21602;55.670;37.578;2023-04-03T13:49:20;8.20;;;4.32;;
35488;SDS011;21602;55.670;37.578;2023-04-03T13:51:54;8.32;;;4.28;;
35488;SDS011;21602;55.670;37.578;2023-04-03T13:54:22;10.40;;;4.85;;
35488;SDS011;21602;55.670;37.578;2023-04-03T13:56:56;10.45;;;4.78;;
35488;SDS011;21602;55.670;37.578;2023-04-03T14:04:29;12.90;;;4.90;;
35488;SDS011;21602;55.670;37.578;2023-04-03T14:06:58;8.88;;;4.43;;
35488;SDS011;21602;55.670;37.578;2023-04-03T14:09:26;13.77;;;5.25;;
35488;SDS011;21602;55.670;37.578;2023-04-03T14:11:55;13.07;;;5.18;;
35488;SDS011;21602;55.670;37.578;2023-04-03T14:14:32;7.57;;;4.70;;
35488;SDS011;21602;55.670;37.578;2023-04-03T14:17:02;11.23;;;5.55;;
35488;SDS011;21602;55.670;37.578;2023-04-03T14:19:44;9.80;;;4.93;;
35488;SDS011;21602;55.670;37.578;2023-04-03T14:22:17;10.13;;;5.72;;
35488;SDS011;21602;55.670;37.578;2023-04-03T14:24:49;17.63;;;5.50;;
35488;SDS011;21602;55.670;37.578;2023-04-03T14:27:21;13.68;;;5.65;;
35488;SDS011;21602;55.670;37.578;2023-04-03T14:29:52;8.02;;;5.05;;
35488;SDS011;21602;55.670;37.578;2023-04-03T14:32:20;8.95;;;4.85;;
35488;SDS011;21602;55.670;37.578;2023-04-03T14:34:48;10.27;;;6.10;;
35488;SDS011;21602;55.670;37.578;2023-04-03T14:37:17;13.60;;;5.13;;
35488;SDS011;21602;55.670;37.578;2023-04-03T14:39:46;22.63;;;5.47;;
35488;SDS011;21602;55.670;37.578;2023-04-03T14:42:14;7.38;;;5.40;;
35488;SDS011;21602;55.670;37.578;2023-04-03T14:44:44;11.63;;;5.20;;
35488;SDS011;21602;55.670;37.578;2023-04-03T14:47:15;11.90;;;6.07;;
35488;SDS011;21602;55.670;37.578;2023-04-03T14:49:44;13.60;;;6.10;;
35488;SDS011;21602;55.670;37.578;2023-04-03T14:52:20;18.73;;;6.07;;
35488;SDS011;21602;55.670;37.578;2023-04-03T14:54:52;10.10;;;5.55;;
35488;SDS011;21602;55.670;37.578;2023-04-03T14:57:19;12.88;;;5.70;;
35488;SDS011;21602;55.670;37.578;2023-04-03T14:59:49;8.85;;;5.15;;
35488;SDS011;21602;55.670;37.578;2023-04-03T15:04:57;17.92;;;6.10;;
35488;SDS011;21602;55.670;37.578;2023-04-03T15:07:25;19.73;;;5.80;;
35488;SDS011;21602;55.670;37.578;2023-04-03T15:10:21;86.57;;;35.10;;
35488;SDS011;21602;55.670;37.578;2023-04-03T15:12:57;72.63;;;32.60;;
35488;SDS011;21602;55.670;37.578;2023-04-03T15:15:29;103.75;;;60.10;;
35488;SDS011;21602;55.670;37.578;2023-04-03T15:18:00;64.70;;;35.15;;
35488;SDS011;21602;55.670;37.578;2023-04-03T15:20:39;30.33;;;18.42;;
35488;SDS011;21602;55.670;37.578;2023-04-03T15:23:05;15.15;;;7.97;;
35488;SDS011;21602;55.670;37.578;2023-04-03T15:25:31;26.45;;;14.18;;
35488;SDS011;21602;55.670;37.578;2023-04-03T15:27:58;16.83;;;6.80;;
35488;SDS011;21602;55.670;37.578;2023-04-03T15:30:25;32.63;;;21.02;;
35488;SDS011;21602;55.670;37.578;2023-04-03T15:32:51;14.95;;;7.00;;
35488;SDS011;21602;55.670;37.578;2023-04-03T15:35:18;14.55;;;5.97;;
35488;SDS011;21602;55.670;37.578;2023-04-03T15:37:44;12.82;;;5.28;;
35488;SDS011;21602;55.670;37.578;2023-04-03T15:40:10;15.10;;;6.57;;
35488;SDS011;21602;55.670;37.578;2023-04-03T15:42:37;11.38;;;5.57;;
35488;SDS011;21602;55.670;37.578;2023-04-03T15:45:04;13.13;;;5.82;;
35488;SDS011;21602;55.670;37.578;2023-04-03T15:47:33;18.80;;;6.30;;
35488;SDS011;21602;55.670;37.578;2023-04-03T15:49:59;14.05;;;5.90;;
35488;SDS011;21602;55.670;37.578;2023-04-03T15:52:26;17.80;;;6.07;;
35488;SDS011;21602;55.670;37.578;2023-04-03T15:54:53;14.43;;;6.60;;
35488;SDS011;21602;55.670;37.578;2023-04-03T15:57:19;16.80;;;6.28;;
35488;SDS011;21602;55.670;37.578;2023-04-03T15:59:45;14.50;;;6.70;;
35488;SDS011;21602;55.670;37.578;2023-04-03T16:02:11;23.13;;;7.07;;
35488;SDS011;21602;55.670;37.578;2023-04-03T16:04:38;19.92;;;7.05;;
35488;SDS011;21602;55.670;37.578;2023-04-03T16:07:05;19.85;;;7.75;;
35488;SDS011;21602;55.670;37.578;2023-04-03T16:09:35;13.93;;;6.40;;
35488;SDS011;21602;55.670;37.578;2023-04-03T16:12:02;18.33;;;6.93;;
35488;SDS011;21602;55.670;37.578;2023-04-03T16:14:28;16.13;;;6.97;;
35488;SDS011;21602;55.670;37.578;2023-04-03T16:16:57;20.13;;;6.60;;
35488;SDS011;21602;55.670;37.578;2023-04-03T16:19:27;18.67;;;7.35;;
35488;SDS011;21602;55.670;37.578;2023-04-03T16:21:54;16.00;;;6.80;;
35488;SDS011;21602;55.670;37.578;2023-04-03T16:24:24;16.95;;;6.32;;
35488;SDS011;21602;55.670;37.578;2023-04-03T16:26:51;26.92;;;7.13;;
35488;SDS011;21602;55.670;37.578;2023-04-03T16:29:18;16.60;;;6.97;;